sensor_id;sensor_type;location;lat;lon;timestamp;temperature;humidity
32536;DHT22;18974;50.838;4.636;2022-09-16T11:34:51;16.40;99.90
32536;DHT22;18974;50.838;4.636;2022-09-16T11:37:31;16.90;99.90
32536;DHT22;18974;50.838;4.636;2022-09-16T11:42:45;16.90;99.90
32536;DHT22;18974;50.838;4.636;2022-09-16T11:51:06;16.70;99.90
32536;DHT22;18974;50.838;4.636;2022-09-16T11:54:04;16.70;99.90
32536;DHT22;18974;50.838;4.636;2022-09-16T11:56:39;16.60;99.90
32536;DHT22;18974;50.838;4.636;2022-09-16T11:59:19;16.50;99.90
32536;DHT22;18974;50.838;4.636;2022-09-16T12:04:40;16.40;99.90
32536;DHT22;18974;50.838;4.636;2022-09-16T12:07:32;16.40;99.90
32536;DHT22;18974;50.838;4.636;2022-09-16T12:10:05;16.50;99.90
32536;DHT22;18974;50.838;4.636;2022-09-16T12:12:39;16.60;99.90
32536;DHT22;18974;50.838;4.636;2022-09-16T12:15:31;16.80;99.90
32536;DHT22;18974;50.838;4.636;2022-09-16T12:18:06;16.90;99.90
32536;DHT22;18974;50.838;4.636;2022-09-16T12:20:37;17.00;99.90
32536;DHT22;18974;50.838;4.636;2022-09-16T12:23:19;17.10;99.90
32536;DHT22;18974;50.838;4.636;2022-09-16T12:28:46;17.00;99.90
32536;DHT22;18974;50.838;4.636;2022-09-16T12:31:24;16.90;99.90
32536;DHT22;18974;50.838;4.636;2022-09-16T12:33:59;16.70;99.90
32536;DHT22;18974;50.838;4.636;2022-09-16T12:36:35;16.60;99.90
32536;DHT22;18974;50.838;4.636;2022-09-16T12:39:02;16.20;99.90
32536;DHT22;18974;50.838;4.636;2022-09-16T12:41:40;15.80;99.90
32536;DHT22;18974;50.838;4.636;2022-09-16T12:44:34;15.60;99.90
32536;DHT22;18974;50.838;4.636;2022-09-16T13:04:00;14.10;99.90
32536;DHT22;18974;50.838;4.636;2022-09-16T13:06:31;14.30;99.90
32536;DHT22;18974;50.838;4.636;2022-09-16T13:09:19;14.60;99.90
32536;DHT22;18974;50.838;4.636;2022-09-16T13:12:03;14.70;99.90
32536;DHT22;18974;50.838;4.636;2022-09-16T13:14:52;14.80;99.90
32536;DHT22;18974;50.838;4.636;2022-09-16T13:17:30;14.90;99.90
32536;DHT22;18974;50.838;4.636;2022-09-16T13:20:18;15.00;99.90
32536;DHT22;18974;50.838;4.636;2022-09-16T13:22:49;15.00;99.90
32536;DHT22;18974;50.838;4.636;2022-09-16T13:28:00;15.20;99.90
32536;DHT22;18974;50.838;4.636;2022-09-16T13:32:59;15.10;99.90
32536;DHT22;18974;50.838;4.636;2022-09-16T13:40:38;15.40;99.90
32536;DHT22;18974;50.838;4.636;2022-09-16T13:45:38;15.60;99.90
32536;DHT22;18974;50.838;4.636;2022-09-16T13:48:23;15.70;99.90
32536;DHT22;18974;50.838;4.636;2022-09-16T13:50:55;15.90;99.90
32536;DHT22;18974;50.838;4.636;2022-09-16T13:53:43;16.20;99.90
32536;DHT22;18974;50.838;4.636;2022-09-16T14:01:46;15.70;99.90
32536;DHT22;18974;50.838;4.636;2022-09-16T14:04:30;15.40;99.90
32536;DHT22;18974;50.838;4.636;2022-09-16T14:14:48;14.50;99.90
32536;DHT22;18974;50.838;4.636;2022-09-16T14:17:23;14.40;99.90
32536;DHT22;18974;50.838;4.636;2022-09-16T14:19:51;14.40;99.90
32536;DHT22;18974;50.838;4.636;2022-09-16T14:22:19;14.50;99.90
32536;DHT22;18974;50.838;4.636;2022-09-16T14:24:51;14.50;99.90
32536;DHT22;18974;50.838;4.636;2022-09-16T14:27:27;14.70;99.90
32536;DHT22;18974;50.838;4.636;2022-09-16T14:30:02;14.90;99.90
32536;DHT22;18974;50.838;4.636;2022-09-16T14:32:37;15.10;99.90
32536;DHT22;18974;50.838;4.636;2022-09-16T14:35:18;15.30;99.90
32536;DHT22;18974;50.838;4.636;2022-09-16T14:37:47;15.30;99.90
32536;DHT22;18974;50.838;4.636;2022-09-16T14:40:16;15.40;99.90
32536;DHT22;18974;50.838;4.636;2022-09-16T14:43:11;15.30;99.90
32536;DHT22;18974;50.838;4.636;2022-09-16T14:45:48;15.40;99.90
32536;DHT22;18974;50.838;4.636;2022-09-16T14:48:15;15.50;99.90
32536;DHT22;18974;50.838;4.636;2022-09-16T14:50:45;15.50;99.90
32536;DHT22;18974;50.838;4.636;2022-09-16T14:53:27;15.60;99.90
32536;DHT22;18974;50.838;4.636;2022-09-16T14:55:54;15.60;99.90
32536;DHT22;18974;50.838;4.636;2022-09-16T14:58:22;15.70;99.90
32536;DHT22;18974;50.838;4.636;2022-09-16T15:03:38;15.40;99.90
32536;DHT22;18974;50.838;4.636;2022-09-16T15:06:14;15.40;99.90
32536;DHT22;18974;50.838;4.636;2022-09-16T15:08:45;15.30;99.90
32536;DHT22;18974;50.838;4.636;2022-09-16T15:11:14;15.30;99.90
32536;DHT22;18974;50.838;4.636;2022-09-16T15:13:42;15.20;99.90
32536;DHT22;18974;50.838;4.636;2022-09-16T15:16:17;15.10;99.90
32536;DHT22;18974;50.838;4.636;2022-09-16T15:19:03;15.00;99.90
32536;DHT22;18974;50.838;4.636;2022-09-16T15:21:32;14.90;99.90
32536;DHT22;18974;50.838;4.636;2022-09-16T15:24:01;14.80;99.90
32536;DHT22;18974;50.838;4.636;2022-09-16T15:26:43;14.80;99.90
32536;DHT22;18974;50.838;4.636;2022-09-16T15:31:43;14.80;99.90
32536;DHT22;18974;50.838;4.636;2022-09-16T15:36:53;14.60;99.90
32536;DHT22;18974;50.838;4.636;2022-09-16T15:39:39;14.50;99.90
32536;DHT22;18974;50.838;4.636;2022-09-16T15:42:16;14.70;99.90
32536;DHT22;18974;50.838;4.636;2022-09-16T15:50:00;14.80;99.90
32536;DHT22;18974;50.838;4.636;2022-09-16T15:52:27;14.80;99.90
32536;DHT22;18974;50.838;4.636;2022-09-16T15:55:01;14.90;99.90
32536;DHT22;18974;50.838;4.636;2022-09-16T15:57:34;15.00;99.90
32536;DHT22;18974;50.838;4.636;2022-09-16T16:00:09;15.00;99.90
32536;DHT22;18974;50.838;4.636;2022-09-16T16:05:20;14.80;99.90
32536;DHT22;18974;50.838;4.636;2022-09-16T16:07:49;14.90;99.90
32536;DHT22;18974;50.838;4.636;2022-09-16T16:10:16;15.10;99.90
32536;DHT22;18974;50.838;4.636;2022-09-16T16:12:44;15.20;99.90
32536;DHT22;18974;50.838;4.636;2022-09-16T16:15:11;15.10;99.90
32536;DHT22;18974;50.838;4.636;2022-09-16T16:17:40;15.20;99.90
32536;DHT22;18974;50.838;4.636;2022-09-16T16:20:09;15.20;99.90
32536;DHT22;18974;50.838;4.636;2022-09-16T16:22:38;15.10;99.90
32536;DHT22;18974;50.838;4.636;2022-09-16T16:25:04;15.00;99.90
32536;DHT22;18974;50.838;4.636;2022-09-16T16:27:30;14.90;99.90
32536;DHT22;18974;50.838;4.636;2022-09-16T16:29:56;14.80;99.90
32536;DHT22;18974;50.838;4.636;2022-09-16T16:32:22;14.70;99.90
32536;DHT22;18974;50.838;4.636;2022-09-16T16:34:48;14.60;99.90
32536;DHT22;18974;50.838;4.636;2022-09-16T16:37:19;14.50;99.90
32536;DHT22;18974;50.838;4.636;2022-09-16T16:39:44;14.30;99.90
32536;DHT22;18974;50.838;4.636;2022-09-16T16:42:11;14.20;99.90
32536;DHT22;18974;50.838;4.636;2022-09-16T16:44:39;14.00;99.90
32536;DHT22;18974;50.838;4.636;2022-09-16T16:47:05;14.00;99.90
32536;DHT22;18974;50.838;4.636;2022-09-16T16:49:31;14.00;99.90
32536;DHT22;18974;50.838;4.636;2022-09-16T16:51:59;13.80;99.90
32536;DHT22;18974;50.838;4.636;2022-09-16T16:54:25;13.80;99.90
32536;DHT22;18974;50.838;4.636;2022-09-16T16:56:52;13.80;99.90
32536;DHT22;18974;50.838;4.636;2022-09-16T16:59:18;13.90;99.90
32536;DHT22;18974;50.838;4.636;2022-09-16T17:01:45;13.80;99.90
32536;DHT22;18974;50.838;4.636;2022-09-16T17:04:12;13.80;99.90
32536;DHT22;18974;50.838;4.636;2022-09-16T17:06:38;13.70;99.90
32536;DHT22;18974;50.838;4.636;2022-09-16T17:09:05;13.50;99.90
32536;DHT22;18974;50.838;4.636;2022-09-16T17:11:32;13.40;99.90
32536;DHT22;18974;50.838;4.636;2022-09-16T17:14:02;13.40;99.90
32536;DHT22;18974;50.838;4.636;2022-09-16T17:16:28;13.20;99.90
32536;DHT22;18974;50.838;4.636;2022-09-16T17:18:57;13.20;99.90
32536;DHT22;18974;50.838;4.636;2022-09-16T17:21:31;13.20;99.90
32536;DHT22;18974;50.838;4.636;2022-09-16T17:23:57;13.00;99.90
32536;DHT22;18974;50.838;4.636;2022-09-16T17:26:24;13.00;99.90
32536;DHT22;18974;50.838;4.636;2022-09-16T17:28:51;12.90;99.90
32536;DHT22;18974;50.838;4.636;2022-09-16T17:31:19;12.90;99.90
32536;DHT22;18974;50.838;4.636;2022-09-16T17:33:47;12.80;99.90
32536;DHT22;18974;50.838;4.636;2022-09-16T17:36:14;12.80;99.90
32536;DHT22;18974;50.838;4.636;2022-09-16T17:38:41;12.70;99.90
32536;DHT22;18974;50.838;4.636;2022-09-16T17:41:09;12.70;99.90
32536;DHT22;18974;50.838;4.636;2022-09-16T17:43:36;12.70;99.90
32536;DHT22;18974;50.838;4.636;2022-09-16T17:46:04;12.60;99.90
32536;DHT22;18974;50.838;4.636;2022-09-16T17:48:30;12.60;99.90
32536;DHT22;18974;50.838;4.636;2022-09-16T17:50:56;12.60;99.90
32536;DHT22;18974;50.838;4.636;2022-09-16T17:53:22;12.60;99.90
32536;DHT22;18974;50.838;4.636;2022-09-16T17:55:48;12.50;99.90
32536;DHT22;18974;50.838;4.636;2022-09-16T17:58:14;12.50;99.90
32536;DHT22;18974;50.838;4.636;2022-09-16T18:00:41;12.40;99.90
32536;DHT22;18974;50.838;4.636;2022-09-16T18:03:09;12.40;99.90
32536;DHT22;18974;50.838;4.636;2022-09-16T18:05:36;12.30;99.90
32536;DHT22;18974;50.838;4.636;2022-09-16T18:08:02;12.30;99.90
32536;DHT22;18974;50.838;4.636;2022-09-16T18:10:29;12.30;99.90
32536;DHT22;18974;50.838;4.636;2022-09-16T18:12:55;12.30;99.90
32536;DHT22;18974;50.838;4.636;2022-09-16T18:15:25;12.30;99.90
32536;DHT22;18974;50.838;4.636;2022-09-16T18:17:50;12.30;99.90
32536;DHT22;18974;50.838;4.636;2022-09-16T18:20:17;12.20;99.90
32536;DHT22;18974;50.838;4.636;2022-09-16T18:22:43;12.20;99.90
32536;DHT22;18974;50.838;4.636;2022-09-16T18:25:08;12.30;99.90
32536;DHT22;18974;50.838;4.636;2022-09-16T18:27:34;12.30;99.90
32536;DHT22;18974;50.838;4.636;2022-09-16T18:30:00;12.40;99.90
32536;DHT22;18974;50.838;4.636;2022-09-16T18:32:26;12.30;99.90
32536;DHT22;18974;50.838;4.636;2022-09-16T18:34:53;12.30;99.90
32536;DHT22;18974;50.838;4.636;2022-09-16T18:37:19;12.30;99.90
32536;DHT22;18974;50.838;4.636;2022-09-16T18:39:45;12.40;99.90
32536;DHT22;18974;50.838;4.636;2022-09-16T18:42:11;12.30;99.90
32536;DHT22;18974;50.838;4.636;2022-09-16T18:44:37;12.30;99.90
32536;DHT22;18974;50.838;4.636;2022-09-16T18:47:03;12.20;99.90
32536;DHT22;18974;50.838;4.636;2022-09-16T18:49:28;12.30;99.90
32536;DHT22;18974;50.838;4.636;2022-09-16T18:51:54;12.30;99.90
32536;DHT22;18974;50.838;4.636;2022-09-16T18:54:24;12.20;99.90
32536;DHT22;18974;50.838;4.636;2022-09-16T18:56:53;12.20;99.90
32536;DHT22;18974;50.838;4.636;2022-09-16T18:59:21;12.20;99.90
32536;DHT22;18974;50.838;4.636;2022-09-16T19:01:49;12.30;99.90
32536;DHT22;18974;50.838;4.636;2022-09-16T19:04:17;12.20;99.90
32536;DHT22;18974;50.838;4.636;2022-09-16T19:06:47;12.30;99.90
32536;DHT22;18974;50.838;4.636;2022-09-16T19:09:17;12.20;99.90
32536;DHT22;18974;50.838;4.636;2022-09-16T19:11:43;12.10;99.90
32536;DHT22;18974;50.838;4.636;2022-09-16T19:14:10;12.00;99.90
32536;DHT22;18974;50.838;4.636;2022-09-16T19:16:39;11.90;99.90
32536;DHT22;18974;50.838;4.636;2022-09-16T19:19:06;11.90;99.90
32536;DHT22;18974;50.838;4.636;2022-09-16T19:21:32;11.90;99.90
32536;DHT22;18974;50.838;4.636;2022-09-16T19:24:00;11.90;99.90
32536;DHT22;18974;50.838;4.636;2022-09-16T19:26:30;11.90;99.90
32536;DHT22;18974;50.838;4.636;2022-09-16T19:28:57;11.90;99.90
32536;DHT22;18974;50.838;4.636;2022-09-16T19:31:24;11.90;99.90
32536;DHT22;18974;50.838;4.636;2022-09-16T19:33:50;11.80;99.90
32536;DHT22;18974;50.838;4.636;2022-09-16T19:36:18;11.90;99.90
32536;DHT22;18974;50.838;4.636;2022-09-16T19:38:45;11.90;99.90
32536;DHT22;18974;50.838;4.636;2022-09-16T19:41:11;11.90;99.90
32536;DHT22;18974;50.838;4.636;2022-09-16T19:43:37;11.90;99.90
32536;DHT22;18974;50.838;4.636;2022-09-16T19:46:05;11.80;99.90
32536;DHT22;18974;50.838;4.636;2022-09-16T19:48:33;11.70;99.90
32536;DHT22;18974;50.838;4.636;2022-09-16T19:50:59;11.80;99.90
32536;DHT22;18974;50.838;4.636;2022-09-16T19:53:25;11.60;99.90
32536;DHT22;18974;50.838;4.636;2022-09-16T19:55:59;11.60;99.90
32536;DHT22;18974;50.838;4.636;2022-09-16T19:58:26;11.60;99.90
32536;DHT22;18974;50.838;4.636;2022-09-16T20:01:07;11.60;99.90
32536;DHT22;18974;50.838;4.636;2022-09-16T20:03:34;11.50;99.90
32536;DHT22;18974;50.838;4.636;2022-09-16T20:06:09;11.40;99.90
32536;DHT22;18974;50.838;4.636;2022-09-16T20:08:36;11.40;99.90
32536;DHT22;18974;50.838;4.636;2022-09-16T20:13:36;11.30;99.90
32536;DHT22;18974;50.838;4.636;2022-09-16T20:16:05;11.40;99.90
32536;DHT22;18974;50.838;4.636;2022-09-16T20:18:33;11.30;99.90
32536;DHT22;18974;50.838;4.636;2022-09-16T20:21:00;11.30;99.90
32536;DHT22;18974;50.838;4.636;2022-09-16T20:23:26;11.30;99.90
32536;DHT22;18974;50.838;4.636;2022-09-16T20:25:54;11.30;99.90
32536;DHT22;18974;50.838;4.636;2022-09-16T20:28:20;11.30;99.90
32536;DHT22;18974;50.838;4.636;2022-09-16T20:30:45;11.40;99.90
32536;DHT22;18974;50.838;4.636;2022-09-16T20:33:11;11.30;99.90
32536;DHT22;18974;50.838;4.636;2022-09-16T20:35:37;11.40;99.90
32536;DHT22;18974;50.838;4.636;2022-09-16T20:38:02;11.40;99.90
32536;DHT22;18974;50.838;4.636;2022-09-16T20:40:28;11.50;99.90
32536;DHT22;18974;50.838;4.636;2022-09-16T20:42:54;11.50;99.90
32536;DHT22;18974;50.838;4.636;2022-09-16T20:45:19;11.40;99.90
32536;DHT22;18974;50.838;4.636;2022-09-16T20:47:49;11.40;99.90
32536;DHT22;18974;50.838;4.636;2022-09-16T20:50:16;11.40;99.90
32536;DHT22;18974;50.838;4.636;2022-09-16T20:52:42;11.40;99.90
32536;DHT22;18974;50.838;4.636;2022-09-16T20:55:08;11.30;99.90
32536;DHT22;18974;50.838;4.636;2022-09-16T20:57:33;11.30;99.90
32536;DHT22;18974;50.838;4.636;2022-09-16T20:59:59;11.30;99.90
32536;DHT22;18974;50.838;4.636;2022-09-16T21:02:25;11.20;99.90
32536;DHT22;18974;50.838;4.636;2022-09-16T21:04:51;11.30;99.90
32536;DHT22;18974;50.838;4.636;2022-09-16T21:07:17;11.40;99.90
32536;DHT22;18974;50.838;4.636;2022-09-16T21:09:43;11.30;99.90
32536;DHT22;18974;50.838;4.636;2022-09-16T21:12:09;11.20;99.90
32536;DHT22;18974;50.838;4.636;2022-09-16T21:14:35;11.20;99.90
32536;DHT22;18974;50.838;4.636;2022-09-16T21:17:00;11.20;99.90
32536;DHT22;18974;50.838;4.636;2022-09-16T21:19:26;11.20;99.90
32536;DHT22;18974;50.838;4.636;2022-09-16T21:21:52;11.30;99.90
32536;DHT22;18974;50.838;4.636;2022-09-16T21:24:17;11.40;99.90
32536;DHT22;18974;50.838;4.636;2022-09-16T21:26:44;11.40;99.90
32536;DHT22;18974;50.838;4.636;2022-09-16T21:29:14;11.50;99.90
32536;DHT22;18974;50.838;4.636;2022-09-16T21:31:41;11.50;99.90
32536;DHT22;18974;50.838;4.636;2022-09-16T21:34:15;11.40;99.90
32536;DHT22;18974;50.838;4.636;2022-09-16T21:36:41;11.40;99.90
32536;DHT22;18974;50.838;4.636;2022-09-16T21:39:09;11.50;99.90
32536;DHT22;18974;50.838;4.636;2022-09-16T21:41:35;11.50;99.90
32536;DHT22;18974;50.838;4.636;2022-09-16T21:44:01;11.60;99.90
32536;DHT22;18974;50.838;4.636;2022-09-16T21:46:30;11.60;99.90
32536;DHT22;18974;50.838;4.636;2022-09-16T21:48:59;11.60;99.90
32536;DHT22;18974;50.838;4.636;2022-09-16T21:51:27;11.60;99.90
32536;DHT22;18974;50.838;4.636;2022-09-16T21:54:03;11.60;99.90
32536;DHT22;18974;50.838;4.636;2022-09-16T21:56:29;11.60;99.90
32536;DHT22;18974;50.838;4.636;2022-09-16T21:58:55;11.50;99.90
32536;DHT22;18974;50.838;4.636;2022-09-16T22:01:24;11.50;99.90
32536;DHT22;18974;50.838;4.636;2022-09-16T22:03:55;11.50;99.90
32536;DHT22;18974;50.838;4.636;2022-09-16T22:06:22;11.50;99.90
32536;DHT22;18974;50.838;4.636;2022-09-16T22:08:50;11.40;99.90
32536;DHT22;18974;50.838;4.636;2022-09-16T22:11:17;11.40;99.90
32536;DHT22;18974;50.838;4.636;2022-09-16T22:13:44;11.50;99.90
32536;DHT22;18974;50.838;4.636;2022-09-16T22:16:16;11.50;99.90
32536;DHT22;18974;50.838;4.636;2022-09-16T22:18:42;11.60;99.90
32536;DHT22;18974;50.838;4.636;2022-09-16T22:21:13;11.50;99.90
32536;DHT22;18974;50.838;4.636;2022-09-16T22:23:40;11.50;99.90
32536;DHT22;18974;50.838;4.636;2022-09-16T22:26:14;11.50;99.90
32536;DHT22;18974;50.838;4.636;2022-09-16T22:28:41;11.50;99.90
32536;DHT22;18974;50.838;4.636;2022-09-16T22:31:08;11.50;99.90
32536;DHT22;18974;50.838;4.636;2022-09-16T22:33:35;11.50;99.90
32536;DHT22;18974;50.838;4.636;2022-09-16T22:36:03;11.60;99.90
32536;DHT22;18974;50.838;4.636;2022-09-16T22:38:29;11.60;99.90
32536;DHT22;18974;50.838;4.636;2022-09-16T22:41:03;11.60;99.90
32536;DHT22;18974;50.838;4.636;2022-09-16T22:43:33;11.80;99.90
32536;DHT22;18974;50.838;4.636;2022-09-16T22:46:10;11.80;99.90
32536;DHT22;18974;50.838;4.636;2022-09-16T22:48:36;11.90;99.90
32536;DHT22;18974;50.838;4.636;2022-09-16T22:51:03;11.90;99.90
32536;DHT22;18974;50.838;4.636;2022-09-16T22:53:30;11.90;99.90
32536;DHT22;18974;50.838;4.636;2022-09-16T22:56:01;11.90;99.90
32536;DHT22;18974;50.838;4.636;2022-09-16T22:58:28;12.00;99.90
32536;DHT22;18974;50.838;4.636;2022-09-16T23:01:04;11.90;99.90
32536;DHT22;18974;50.838;4.636;2022-09-16T23:03:31;11.80;99.90
32536;DHT22;18974;50.838;4.636;2022-09-16T23:05:58;11.80;99.90
32536;DHT22;18974;50.838;4.636;2022-09-16T23:08:25;11.60;99.90
32536;DHT22;18974;50.838;4.636;2022-09-16T23:10:51;11.60;99.90
32536;DHT22;18974;50.838;4.636;2022-09-16T23:13:17;11.60;99.90
32536;DHT22;18974;50.838;4.636;2022-09-16T23:15:43;11.60;99.90
32536;DHT22;18974;50.838;4.636;2022-09-16T23:18:10;11.60;99.90
32536;DHT22;18974;50.838;4.636;2022-09-16T23:20:36;11.50;99.90
32536;DHT22;18974;50.838;4.636;2022-09-16T23:23:02;11.70;99.90
32536;DHT22;18974;50.838;4.636;2022-09-16T23:25:28;11.70;99.90
32536;DHT22;18974;50.838;4.636;2022-09-16T23:27:54;11.60;99.90
32536;DHT22;18974;50.838;4.636;2022-09-16T23:30:20;11.70;99.90
32536;DHT22;18974;50.838;4.636;2022-09-16T23:32:46;11.60;99.90
32536;DHT22;18974;50.838;4.636;2022-09-16T23:35:12;11.60;99.90
32536;DHT22;18974;50.838;4.636;2022-09-16T23:37:38;11.50;99.90
32536;DHT22;18974;50.838;4.636;2022-09-16T23:40:05;11.60;99.90
32536;DHT22;18974;50.838;4.636;2022-09-16T23:42:31;11.50;99.90
32536;DHT22;18974;50.838;4.636;2022-09-16T23:44:57;11.50;99.90
32536;DHT22;18974;50.838;4.636;2022-09-16T23:47:23;11.60;99.90
32536;DHT22;18974;50.838;4.636;2022-09-16T23:49:49;11.50;99.90
32536;DHT22;18974;50.838;4.636;2022-09-16T23:52:15;11.50;99.90
32536;DHT22;18974;50.838;4.636;2022-09-16T23:54:40;11.40;99.90
32536;DHT22;18974;50.838;4.636;2022-09-16T23:57:06;11.50;99.90
32536;DHT22;18974;50.838;4.636;2022-09-16T23:59:31;11.50;99.90
